createdAt,value
2017-10-22T00:00:50.222Z,61.40
2017-10-22T00:03:18.545Z,60.40
2017-10-22T00:05:46.050Z,60.40
2017-10-22T00:08:14.308Z,60.80
2017-10-22T00:10:41.825Z,60.80
2017-10-22T00:13:09.325Z,60.80
2017-10-22T00:15:36.841Z,60.80
2017-10-22T00:18:04.344Z,60.30
2017-10-22T00:20:32.648Z,60.40
2017-10-22T00:23:00.169Z,60.40
2017-10-22T00:25:27.669Z,60.50
2017-10-22T00:27:55.202Z,61.10
2017-10-22T00:30:23.465Z,60.80
2017-10-22T00:32:50.988Z,60.80
2017-10-22T00:35:18.481Z,60.90
2017-10-22T00:37:45.974Z,61.10
2017-10-22T00:40:13.498Z,61.20
2017-10-22T00:42:41.761Z,60.60
2017-10-22T00:45:09.291Z,60.60
2017-10-22T00:47:36.800Z,61.00
2017-10-22T00:50:05.099Z,60.20
2017-10-22T00:52:33.398Z,61.30
2017-10-22T00:55:00.899Z,60.70
2017-10-22T00:57:29.181Z,60.60
2017-10-22T00:59:57.483Z,60.40
2017-10-22T01:02:25.041Z,60.40
2017-10-22T01:04:52.541Z,60.40
2017-10-22T01:07:20.051Z,60.60
2017-10-22T01:09:47.576Z,60.40
2017-10-22T01:12:15.877Z,59.70
2017-10-22T01:14:43.392Z,59.70
2017-10-22T01:17:10.878Z,60.50
2017-10-22T01:19:38.416Z,60.00
2017-10-22T01:22:05.923Z,59.50
2017-10-22T01:24:33.429Z,59.30
2017-10-22T01:27:01.728Z,59.20
2017-10-22T01:29:29.234Z,59.20
2017-10-22T01:31:56.789Z,59.60
2017-10-22T01:34:24.279Z,59.60
2017-10-22T01:36:52.542Z,59.70
2017-10-22T01:39:20.083Z,59.50
2017-10-22T01:41:47.577Z,59.60
2017-10-22T01:44:15.861Z,60.10
2017-10-22T01:46:43.388Z,60.10
2017-10-22T01:49:10.904Z,59.90
2017-10-22T01:51:38.426Z,59.40
2017-10-22T01:54:06.721Z,59.40
2017-10-22T01:56:34.245Z,59.40
2017-10-22T01:59:02.509Z,59.10
2017-10-22T02:01:30.037Z,59.10
2017-10-22T02:03:57.569Z,58.90
2017-10-22T02:06:25.070Z,59.20
2017-10-22T02:08:52.573Z,59.40
2017-10-22T02:11:20.111Z,59.60
2017-10-22T02:13:48.382Z,59.10
2017-10-22T02:16:16.669Z,58.70
2017-10-22T02:18:44.186Z,58.70
2017-10-22T02:21:11.720Z,58.80
2017-10-22T02:23:39.215Z,58.90
2017-10-22T02:26:06.745Z,59.50
2017-10-22T02:28:34.281Z,59.30
2017-10-22T02:31:01.797Z,59.20
2017-10-22T02:33:30.086Z,59.00
2017-10-22T02:35:57.628Z,59.00
2017-10-22T02:38:25.125Z,58.80
2017-10-22T02:40:52.648Z,58.80
2017-10-22T02:43:20.959Z,58.70
2017-10-22T02:45:48.457Z,58.70
2017-10-22T02:48:15.978Z,58.90
2017-10-22T02:50:43.515Z,59.30
2017-10-22T02:53:11.027Z,58.60
2017-10-22T02:55:38.555Z,58.50
2017-10-22T02:58:06.091Z,58.30
2017-10-22T03:00:33.605Z,58.30
2017-10-22T03:03:01.112Z,59.00
2017-10-22T03:05:28.649Z,58.90
2017-10-22T03:07:56.194Z,58.50
2017-10-22T03:10:24.472Z,57.80
2017-10-22T03:12:52.774Z,57.30
2017-10-22T03:15:20.269Z,57.30
2017-10-22T03:17:47.776Z,58.00
2017-10-22T03:20:15.321Z,58.00
2017-10-22T03:22:43.590Z,57.00
2017-10-22T03:25:11.133Z,57.00
2017-10-22T03:27:38.645Z,57.00
2017-10-22T03:30:06.137Z,56.80
2017-10-22T03:32:33.665Z,56.70
2017-10-22T03:35:01.176Z,56.40
2017-10-22T03:37:29.480Z,57.50
2017-10-22T03:39:56.985Z,57.50
2017-10-22T03:42:24.477Z,56.80
2017-10-22T03:44:52.780Z,57.00
2017-10-22T03:47:20.273Z,57.00
2017-10-22T03:49:47.784Z,56.40
2017-10-22T03:52:15.329Z,56.90
2017-10-22T03:54:42.839Z,56.10
2017-10-22T03:57:10.343Z,55.90
2017-10-22T03:59:37.903Z,56.20
2017-10-22T04:02:05.406Z,55.70
2017-10-22T04:04:32.906Z,55.60
2017-10-22T04:07:01.203Z,55.40
2017-10-22T04:09:28.702Z,55.40
2017-10-22T04:11:56.247Z,54.90
2017-10-22T04:14:23.752Z,55.80
2017-10-22T04:16:52.048Z,54.10
2017-10-22T04:19:19.577Z,54.10
2017-10-22T04:21:47.082Z,54.40
2017-10-22T04:24:14.624Z,55.30
2017-10-22T04:26:42.137Z,54.80
2017-10-22T04:29:10.444Z,55.60
2017-10-22T04:31:37.983Z,55.60
2017-10-22T04:34:06.280Z,54.10
2017-10-22T04:36:33.817Z,54.10
2017-10-22T04:39:02.090Z,54.70
2017-10-22T04:41:29.651Z,54.80
2017-10-22T04:43:57.918Z,54.50
2017-10-22T04:46:26.197Z,55.30
2017-10-22T04:48:54.493Z,55.10
2017-10-22T04:51:22.045Z,55.10
2017-10-22T04:53:49.549Z,55.00
2017-10-22T04:56:17.077Z,55.10
2017-10-22T04:58:44.624Z,54.70
2017-10-22T05:01:12.127Z,55.20
2017-10-22T05:03:39.634Z,55.10
2017-10-22T05:06:07.173Z,54.20
2017-10-22T05:08:34.679Z,54.20
2017-10-22T05:11:02.218Z,53.10
2017-10-22T05:13:29.776Z,54.20
2017-10-22T05:15:57.286Z,54.90
2017-10-22T05:18:24.798Z,54.70
2017-10-22T05:20:52.350Z,54.40
2017-10-22T05:23:19.845Z,54.50
2017-10-22T05:25:48.106Z,53.40
2017-10-22T05:28:16.406Z,53.00
2017-10-22T05:30:43.918Z,53.10
2017-10-22T05:33:11.467Z,53.00
2017-10-22T05:35:38.974Z,52.90
2017-10-22T05:38:06.510Z,53.60
2017-10-22T05:40:34.840Z,53.60
2017-10-22T05:43:02.346Z,53.60
2017-10-22T05:45:30.620Z,52.30
2017-10-22T05:47:58.928Z,52.10
2017-10-22T05:50:26.429Z,52.10
2017-10-22T05:52:53.961Z,52.20
2017-10-22T05:55:22.245Z,52.20
2017-10-22T05:57:49.757Z,52.20
2017-10-22T06:00:17.291Z,53.30
2017-10-22T06:02:45.234Z,51.40
2017-10-22T06:05:12.797Z,51.70
2017-10-22T06:07:40.351Z,52.10
2017-10-22T06:10:07.890Z,51.80
2017-10-22T06:12:36.157Z,51.60
2017-10-22T06:15:03.665Z,51.60
2017-10-22T06:17:40.978Z,51.10
2017-10-22T06:20:08.472Z,51.70
2017-10-22T06:22:36.778Z,51.30
2017-10-22T06:25:04.318Z,51.30
2017-10-22T06:27:31.853Z,50.80
2017-10-22T06:29:59.618Z,50.50
2017-10-22T06:32:27.140Z,51.40
2017-10-22T06:34:54.686Z,50.60
2017-10-22T06:37:22.228Z,51.00
2017-10-22T06:39:50.539Z,51.10
2017-10-22T06:42:18.814Z,51.20
2017-10-22T06:44:47.087Z,50.30
2017-10-22T06:47:15.398Z,50.90
2017-10-22T06:49:42.922Z,50.90
2017-10-22T06:52:11.202Z,50.40
2017-10-22T06:54:39.497Z,50.70
2017-10-22T06:57:07.001Z,50.10
2017-10-22T06:59:34.538Z,50.00
2017-10-22T07:02:02.042Z,49.70
2017-10-22T07:04:30.345Z,50.70
2017-10-22T07:06:57.894Z,50.70
2017-10-22T07:09:25.404Z,51.20
2017-10-22T07:11:52.943Z,50.60
2017-10-22T07:14:20.444Z,50.30
2017-10-22T07:16:48.755Z,50.80
2017-10-22T07:19:16.267Z,50.80
2017-10-22T07:21:43.773Z,49.90
2017-10-22T07:24:11.325Z,49.70
2017-10-22T07:26:38.830Z,50.40
2017-10-22T07:29:06.392Z,49.30
2017-10-22T07:31:33.892Z,49.70
2017-10-22T07:34:01.399Z,49.60
2017-10-22T07:36:28.929Z,49.50
2017-10-22T07:38:56.430Z,49.80
2017-10-22T07:41:24.745Z,50.80
2017-10-22T07:43:52.281Z,50.80
2017-10-22T07:46:19.787Z,50.00
2017-10-22T07:48:47.298Z,48.90
2017-10-22T07:51:14.842Z,48.70
2017-10-22T07:53:43.114Z,49.90
2017-10-22T07:56:11.422Z,48.60
2017-10-22T07:58:39.738Z,48.30
2017-10-22T08:01:07.277Z,48.30
2017-10-22T08:03:34.819Z,48.70
2017-10-22T08:06:02.318Z,49.40
2017-10-22T08:08:29.853Z,49.20
2017-10-22T08:10:57.357Z,48.60
2017-10-22T08:13:25.661Z,48.10
2017-10-22T08:15:53.170Z,48.10
2017-10-22T08:18:20.697Z,48.60
2017-10-22T08:20:48.202Z,48.70
2017-10-22T08:23:16.521Z,48.40
2017-10-22T08:25:44.021Z,48.40
2017-10-22T08:28:12.290Z,48.40
2017-10-22T08:30:39.832Z,48.40
2017-10-22T08:33:07.387Z,48.90
2017-10-22T08:35:34.894Z,48.70
2017-10-22T08:38:02.395Z,48.30
2017-10-22T08:40:29.928Z,48.50
2017-10-22T08:42:57.434Z,48.90
2017-10-22T08:45:25.077Z,49.70
2017-10-22T08:47:52.575Z,49.20
2017-10-22T08:50:20.116Z,48.70
2017-10-22T08:52:48.404Z,48.70
2017-10-22T08:55:16.697Z,49.10
2017-10-22T08:57:44.211Z,49.10
2017-10-22T09:00:11.745Z,48.90
2017-10-22T09:02:39.245Z,48.30
2017-10-22T09:05:07.551Z,47.90
2017-10-22T09:07:35.059Z,47.80
2017-10-22T09:10:02.601Z,48.80
2017-10-22T09:12:30.111Z,48.30
2017-10-22T09:14:57.618Z,48.30
2017-10-22T09:17:25.151Z,49.40
2017-10-22T09:19:52.675Z,49.80
2017-10-22T09:22:20.941Z,49.70
2017-10-22T09:24:49.253Z,48.90
2017-10-22T09:27:16.762Z,49.40
2017-10-22T09:29:45.031Z,46.80
2017-10-22T09:32:13.346Z,46.80
2017-10-22T09:34:40.884Z,46.80
2017-10-22T09:37:09.150Z,47.40
2017-10-22T09:39:37.452Z,47.10
2017-10-22T09:42:04.970Z,47.00
2017-10-22T09:44:32.476Z,46.50
2017-10-22T09:47:00.001Z,47.60
2017-10-22T09:49:28.270Z,48.20
2017-10-22T09:51:56.569Z,47.90
2017-10-22T09:54:24.084Z,47.80
2017-10-22T09:56:51.630Z,47.90
2017-10-22T09:59:24.997Z,47.00
2017-10-22T10:01:53.698Z,47.20
2017-10-22T10:04:22.000Z,47.60
2017-10-22T10:06:49.511Z,47.00
2017-10-22T10:09:17.059Z,47.20
2017-10-22T10:11:44.560Z,47.50
2017-10-22T10:14:12.891Z,47.40
2017-10-22T10:16:40.424Z,47.90
2017-10-22T10:19:08.725Z,47.70
2017-10-22T10:21:36.233Z,47.70
2017-10-22T10:24:03.766Z,47.10
2017-10-22T10:26:31.266Z,46.90
2017-10-22T10:28:59.579Z,46.80
2017-10-22T10:31:27.106Z,46.80
2017-10-22T10:33:55.390Z,46.70
2017-10-22T10:36:23.684Z,46.50
2017-10-22T10:38:51.998Z,47.80
2017-10-22T10:41:19.499Z,47.70
2017-10-22T10:43:47.774Z,46.70
2017-10-22T10:46:15.313Z,46.80
2017-10-22T10:48:43.594Z,46.30
2017-10-22T10:51:11.869Z,46.50
2017-10-22T10:53:40.181Z,46.30
2017-10-22T10:56:07.683Z,46.30
2017-10-22T10:58:35.189Z,46.80
2017-10-22T11:01:03.494Z,47.10
2017-10-22T11:03:31.060Z,47.10
2017-10-22T11:05:58.701Z,47.30
2017-10-22T11:08:26.209Z,47.00
2017-10-22T11:10:54.884Z,46.70
2017-10-22T11:13:22.422Z,46.70
2017-10-22T11:15:49.944Z,46.40
2017-10-22T11:18:17.490Z,46.70
2017-10-22T11:20:44.989Z,45.50
2017-10-22T11:23:12.594Z,45.40
2017-10-22T11:25:40.106Z,45.50
2017-10-22T11:28:07.801Z,46.00
2017-10-22T11:30:36.118Z,45.20
2017-10-22T11:33:03.641Z,45.20
2017-10-22T11:35:31.921Z,46.40
2017-10-22T11:37:59.467Z,46.40
2017-10-22T11:40:27.766Z,46.30
2017-10-22T11:42:55.309Z,46.20
2017-10-22T11:45:22.849Z,46.00
2017-10-22T11:47:51.149Z,45.80
2017-10-22T11:50:18.696Z,45.80
2017-10-22T11:52:46.978Z,45.40
2017-10-22T11:55:15.285Z,45.80
2017-10-22T11:57:42.825Z,45.80
2017-10-22T12:00:10.362Z,46.00
2017-10-22T12:02:38.670Z,46.10
2017-10-22T12:05:06.186Z,46.10
2017-10-22T12:07:34.470Z,46.60
2017-10-22T12:10:02.016Z,46.70
2017-10-22T12:12:30.294Z,45.50
2017-10-22T12:14:58.590Z,46.40
2017-10-22T12:17:26.095Z,46.40
2017-10-22T12:19:53.642Z,46.90
2017-10-22T12:22:21.179Z,45.20
2017-10-22T12:24:48.732Z,46.20
2017-10-22T12:27:16.244Z,46.80
2017-10-22T12:29:43.753Z,45.70
2017-10-22T12:32:11.283Z,44.70
2017-10-22T12:34:39.553Z,44.70
2017-10-22T12:37:07.227Z,44.70
2017-10-22T12:39:34.746Z,44.80
2017-10-22T12:42:02.252Z,44.60
2017-10-22T12:44:29.982Z,44.60
2017-10-22T12:46:57.574Z,45.40
2017-10-22T12:49:25.136Z,44.80
2017-10-22T12:51:52.631Z,44.40
2017-10-22T12:54:20.139Z,43.90
2017-10-22T12:56:47.673Z,45.10
2017-10-22T12:59:16.047Z,44.30
2017-10-22T13:01:44.341Z,44.40
2017-10-22T13:04:11.890Z,44.40
2017-10-22T13:06:39.401Z,45.20
2017-10-22T13:09:06.905Z,45.40
2017-10-22T13:11:35.292Z,45.00
2017-10-22T13:14:02.964Z,45.00
2017-10-22T13:16:30.466Z,44.40
2017-10-22T13:18:58.001Z,45.80
2017-10-22T13:21:25.787Z,44.70
2017-10-22T13:23:53.321Z,44.20
2017-10-22T13:26:20.908Z,44.10
2017-10-22T13:28:48.697Z,44.00
2017-10-22T13:31:16.441Z,43.10
2017-10-22T13:33:43.989Z,44.50
2017-10-22T13:36:11.966Z,44.50
2017-10-22T13:38:39.470Z,44.80
2017-10-22T13:41:07.322Z,43.70
2017-10-22T13:43:35.462Z,43.00
2017-10-22T13:46:03.070Z,43.60
2017-10-22T13:48:30.605Z,43.70
2017-10-22T13:50:58.100Z,43.20
2017-10-22T13:53:26.426Z,43.70
2017-10-22T13:55:53.937Z,43.70
2017-10-22T13:58:22.503Z,44.70
2017-10-22T14:00:50.126Z,44.70
2017-10-22T14:03:17.638Z,44.80
2017-10-22T14:05:45.185Z,44.20
2017-10-22T14:08:13.511Z,44.80
2017-10-22T14:10:41.023Z,44.80
2017-10-22T14:13:09.354Z,45.00
2017-10-22T14:15:36.882Z,45.00
2017-10-22T14:18:05.162Z,44.90
2017-10-22T14:20:32.722Z,44.90
2017-10-22T14:23:00.229Z,45.50
2017-10-22T14:25:27.756Z,46.30
2017-10-22T14:27:55.295Z,46.00
2017-10-22T14:30:23.567Z,46.30
2017-10-22T14:32:51.095Z,46.30
2017-10-22T14:35:19.411Z,46.10
2017-10-22T14:37:47.682Z,46.00
2017-10-22T14:40:15.571Z,46.00
2017-10-22T14:42:43.110Z,45.60
2017-10-22T14:45:10.889Z,45.70
2017-10-22T14:47:38.511Z,45.00
2017-10-22T14:50:06.054Z,45.60
2017-10-22T14:52:34.340Z,46.00
2017-10-22T14:55:02.657Z,45.80
2017-10-22T14:57:30.180Z,45.80
2017-10-22T14:59:57.744Z,46.00
2017-10-22T15:02:25.252Z,45.20
2017-10-22T15:04:53.553Z,46.00
2017-10-22T15:07:21.078Z,46.00
2017-10-22T15:09:48.625Z,46.50
2017-10-22T15:12:16.145Z,46.30
2017-10-22T15:14:43.684Z,46.90
2017-10-22T15:17:12.005Z,46.70
2017-10-22T15:19:39.526Z,46.70
2017-10-22T15:22:07.193Z,47.20
2017-10-22T15:24:34.730Z,46.60
2017-10-22T15:27:02.266Z,46.70
2017-10-22T15:29:29.831Z,48.00
2017-10-22T15:31:57.343Z,47.60
2017-10-22T15:34:24.907Z,47.60
2017-10-22T15:36:52.437Z,47.60
2017-10-22T15:39:19.944Z,47.90
2017-10-22T15:41:47.467Z,47.90
2017-10-22T15:44:15.002Z,47.40
2017-10-22T15:46:42.540Z,47.80
2017-10-22T15:49:10.054Z,47.90
2017-10-22T15:51:37.604Z,47.00
2017-10-22T15:54:05.150Z,46.40
2017-10-22T15:56:32.708Z,46.90
2017-10-22T15:59:00.221Z,47.10
2017-10-22T16:01:27.760Z,47.80
2017-10-22T16:03:55.294Z,47.80
2017-10-22T16:06:22.819Z,47.90
2017-10-22T16:08:50.372Z,47.80
2017-10-22T16:11:17.894Z,48.00
2017-10-22T16:13:45.434Z,47.70
2017-10-22T16:16:12.974Z,47.90
2017-10-22T16:18:40.519Z,47.60
2017-10-22T16:21:08.030Z,47.70
2017-10-22T16:23:35.578Z,48.10
2017-10-22T16:26:03.090Z,48.50
2017-10-22T16:28:30.688Z,48.70
2017-10-22T16:30:58.218Z,48.80
2017-10-22T16:33:25.757Z,48.90
2017-10-22T16:35:54.081Z,48.40
2017-10-22T16:38:21.631Z,48.40
2017-10-22T16:40:49.146Z,48.50
2017-10-22T16:43:16.703Z,48.30
2017-10-22T16:45:44.210Z,48.70
2017-10-22T16:48:11.716Z,48.80
2017-10-22T16:50:39.571Z,49.00
2017-10-22T16:53:07.086Z,49.00
2017-10-22T16:55:34.606Z,49.10
2017-10-22T16:58:02.155Z,49.50
2017-10-22T17:00:29.661Z,49.30
2017-10-22T17:02:57.167Z,49.50
2017-10-22T17:05:24.735Z,49.40
2017-10-22T17:07:52.244Z,49.70
2017-10-22T17:10:19.748Z,50.20
2017-10-22T17:12:47.310Z,50.20
2017-10-22T17:15:14.825Z,50.30
2017-10-22T17:17:42.351Z,50.60
2017-10-22T17:20:09.885Z,50.80
2017-10-22T17:22:37.399Z,51.00
2017-10-22T17:25:05.716Z,51.30
2017-10-22T17:27:33.250Z,51.30
2017-10-22T17:30:01.552Z,51.10
2017-10-22T17:32:29.075Z,51.10
2017-10-22T17:34:56.611Z,50.80
2017-10-22T17:37:24.563Z,51.40
2017-10-22T17:39:52.069Z,51.50
2017-10-22T17:42:19.611Z,50.80
2017-10-22T17:44:47.881Z,51.20
2017-10-22T17:47:16.206Z,51.00
2017-10-22T17:49:43.718Z,51.00
2017-10-22T17:52:11.999Z,51.20
2017-10-22T17:54:40.318Z,51.30
2017-10-22T17:57:07.825Z,51.30
2017-10-22T17:59:36.103Z,51.50
2017-10-22T18:02:04.423Z,51.50
2017-10-22T18:04:31.975Z,51.50
2017-10-22T18:06:59.497Z,51.30
2017-10-22T18:09:27.810Z,51.60
2017-10-22T18:11:55.369Z,51.60
2017-10-22T18:14:22.936Z,52.00
2017-10-22T18:16:50.505Z,52.40
2017-10-22T18:19:18.022Z,52.20
2017-10-22T18:21:45.531Z,52.10
2017-10-22T18:24:13.096Z,51.70
2017-10-22T18:26:40.610Z,52.10
2017-10-22T18:29:08.125Z,51.90
2017-10-22T18:31:36.422Z,52.00
2017-10-22T18:34:03.935Z,52.10
2017-10-22T18:36:31.482Z,52.10
2017-10-22T18:38:59.007Z,52.50
2017-10-22T18:41:26.510Z,52.70
2017-10-22T18:43:54.042Z,52.40
2017-10-22T18:46:21.569Z,52.10
2017-10-22T18:48:49.087Z,52.60
2017-10-22T18:51:16.646Z,52.80
2017-10-22T18:53:44.154Z,53.30
2017-10-22T18:56:11.653Z,52.80
2017-10-22T18:58:39.514Z,53.00
2017-10-22T19:01:07.029Z,53.10
2017-10-22T19:03:34.558Z,53.10
2017-10-22T19:06:02.057Z,53.40
2017-10-22T19:08:35.833Z,53.40
2017-10-22T19:11:03.393Z,53.10
2017-10-22T19:13:30.894Z,53.60
2017-10-22T19:15:58.401Z,53.30
2017-10-22T19:21:25.565Z,53.70
2017-10-22T19:23:53.189Z,53.60
2017-10-22T19:26:20.757Z,53.90
2017-10-22T19:28:49.028Z,53.80
2017-10-22T19:31:17.341Z,54.00
2017-10-22T19:33:44.858Z,54.00
2017-10-22T19:36:13.130Z,54.40
2017-10-22T19:38:41.412Z,54.50
2017-10-22T19:41:16.677Z,54.70
2017-10-22T19:43:44.959Z,54.70
2017-10-22T19:46:12.473Z,54.70
2017-10-22T19:48:40.762Z,55.20
2017-10-22T19:51:09.030Z,55.30
2017-10-22T19:53:37.315Z,55.60
2017-10-22T19:56:04.858Z,55.60
2017-10-22T19:58:34.046Z,56.10
2017-10-22T20:01:01.551Z,56.10
2017-10-22T20:03:29.072Z,55.30
2017-10-22T20:05:57.341Z,55.50
2017-10-22T20:08:25.610Z,55.90
2017-10-22T20:10:53.118Z,55.90
2017-10-22T20:13:20.623Z,56.40
2017-10-22T20:15:48.142Z,56.40
2017-10-22T20:18:16.548Z,56.70
2017-10-22T20:20:44.323Z,56.90
2017-10-22T20:23:12.758Z,56.70
2017-10-22T20:25:42.201Z,56.20
2017-10-22T20:28:10.485Z,56.40
2017-10-22T20:30:38.769Z,56.60
2017-10-22T20:33:07.082Z,56.60
2017-10-22T20:35:39.214Z,56.60
2017-10-22T20:38:06.726Z,56.70
2017-10-22T20:40:34.250Z,56.40
2017-10-22T20:43:01.851Z,56.40
2017-10-22T20:45:29.369Z,56.20
2017-10-22T20:47:56.869Z,56.90
2017-10-22T20:50:24.389Z,57.20
2017-10-22T20:52:51.899Z,57.70
2017-10-22T20:55:19.406Z,57.60
2017-10-22T20:57:46.941Z,57.00
2017-10-22T21:00:14.445Z,57.50
2017-10-22T21:02:41.952Z,57.70
2017-10-22T21:05:09.461Z,58.00
2017-10-22T21:07:36.958Z,57.40
2017-10-22T21:10:04.487Z,57.60
2017-10-22T21:12:32.031Z,57.90
2017-10-22T21:14:59.532Z,58.60
2017-10-22T21:17:27.038Z,58.10
2017-10-22T21:19:54.555Z,58.00
2017-10-22T21:22:22.049Z,57.90
2017-10-22T21:24:49.662Z,58.30
2017-10-22T21:27:17.165Z,58.30
2017-10-22T21:29:44.674Z,58.30
2017-10-22T21:32:12.212Z,57.60
2017-10-22T21:34:40.483Z,57.60
2017-10-22T21:37:08.766Z,57.60
2017-10-22T21:39:37.029Z,57.60
2017-10-22T21:42:05.296Z,56.90
2017-10-22T21:44:32.818Z,56.80
2017-10-22T21:47:00.321Z,57.00
2017-10-22T21:49:28.602Z,57.50
2017-10-22T21:51:56.884Z,57.10
2017-10-22T21:54:24.398Z,57.20
2017-10-22T21:56:51.919Z,57.40
2017-10-22T21:59:19.422Z,57.60
2017-10-22T22:01:46.951Z,57.70
2017-10-22T22:04:14.455Z,57.80
2017-10-22T22:06:42.733Z,57.90
2017-10-22T22:09:11.006Z,58.00
2017-10-22T22:11:39.285Z,58.10
2017-10-22T22:14:07.551Z,57.30
2017-10-22T22:16:35.840Z,56.60
2017-10-22T22:19:04.106Z,57.20
2017-10-22T22:21:32.396Z,57.40
2017-10-22T22:23:59.904Z,57.40
2017-10-22T22:26:27.527Z,57.80
2017-10-22T22:28:55.033Z,57.50
2017-10-22T22:31:22.542Z,57.20
2017-10-22T22:33:50.068Z,57.70
2017-10-22T22:36:18.346Z,57.60
2017-10-22T22:38:46.621Z,57.30
2017-10-22T22:41:14.974Z,57.30
2017-10-22T22:43:42.480Z,57.50
2017-10-22T22:46:10.009Z,57.20
2017-10-22T22:48:38.282Z,57.00
2017-10-22T22:51:06.575Z,56.60
2017-10-22T22:53:34.089Z,56.70
2017-10-22T22:56:01.686Z,57.00
2017-10-22T22:58:29.960Z,56.50
2017-10-22T23:00:58.225Z,56.70
2017-10-22T23:03:26.502Z,56.30
2017-10-22T23:05:54.768Z,56.10
2017-10-22T23:08:23.057Z,56.60
2017-10-22T23:10:51.325Z,56.30
2017-10-22T23:13:19.606Z,56.50
2017-10-22T23:15:47.874Z,56.30
2017-10-22T23:18:16.134Z,56.10
2017-10-22T23:20:43.650Z,56.10
2017-10-22T23:23:11.149Z,56.60
2017-10-22T23:25:38.652Z,56.30
2017-10-22T23:28:06.173Z,56.30
2017-10-22T23:30:34.445Z,55.40
2017-10-22T23:33:02.834Z,54.90
2017-10-22T23:35:31.114Z,55.30
2017-10-22T23:37:58.608Z,55.30
2017-10-22T23:40:26.126Z,55.10
2017-10-22T23:42:54.389Z,54.70
2017-10-22T23:45:22.667Z,53.80
2017-10-22T23:47:50.941Z,53.80
2017-10-22T23:50:19.234Z,54.00
2017-10-22T23:52:46.743Z,54.00
2017-10-22T23:55:14.245Z,54.00
2017-10-22T23:57:41.823Z,54.10
